Aeroporto :
LOGIN :

Iscrizione | Disclaimer

   EN    FR    IT 

 










Sommario :    VFR   VFR Marginale   IFR   IFR Intensivo   IFR Molto Intensivo
Visibilità : 
Base nubi : 
>= 8 km
>= 3000ft
5 / 8 km
1000 / 3000 ft
1500m / 5 km
500 / 1000 ft
800 / 1500m
200 / 500 ft
< 800m
< 200 ft
Simboli :   Temporali  Nebbia  Neve Forte  Precipitazioni Forti  Vento > 20 kt
SIGMETs :   Varie  Temporali  Ghiacco  Turbolenza  Onda orograficha  Ceneri Vulcaniche







- Altitudine del aeroporto : 17 ft
- Codice IATA : MPL
- Carte del aeroporto


LFMT - Montpellier Méditerranée

ULTIMO METAR :
  • 180530Z AUTO 01005KT 350V120 CAVOK 18/15 Q1015 NOSIG

METARs OBSOLETI :
  • 180500Z AUTO 02005KT CAVOK 17/15 Q1015 NOSIG
  • 180430Z AUTO 01005KT 340V040 CAVOK 15/14 Q1015 NOSIG
  • 180400Z AUTO 02005KT CAVOK 14/13 Q1014 NOSIG
  • 180330Z AUTO 01004KT CAVOK 14/13 Q1014 NOSIG
  • 180300Z AUTO 02004KT CAVOK 14/13 Q1015 NOSIG

TAF TAF LFMT
Valido dal 18 a 03 ore il 19 a 03 ore UTC


180200Z 1803/1903 VRB04KT CAVOK
BECMG 1808/1810 15010KT
BECMG 1819/1821 09010KT
PROB30
TEMPO 1821/1903 2000 BR
ATIS : +33 4 67 13 11 70
Nessun NOTAM noto per questo aeroporto.



MetMap, La meteo Aeronautica in un colpo d'occhio ! - Copyright ORBIFLY Dicembre 2007 - Disclaimer

ORBIFLY MET'MAP TEAM :

Programmazione e sviluppo : Alexandra Zaïnal
Concezione e sviluppo : Baudouin d'Aumeries
Co-Programmazione e sviluppo : Marc-Olivier Méhu
Supporto tecnico e logistico : Manuel Goepfert
Aiuto per la traduzione : Arnaldo La Scala

Contatto : metmap@orbifly.com




FONTI E CREDITI :

   NOAA